Campanya meteocatpedra

Dades EMA Sabadell - Parc Agrari

?
?
Resum diari 22:30 TU
Dades diàries de l'estació meteorològica
Temperatura mitjana 23.5 °C
Temperatura màxima 30.7 °C 12:43 TU
Temperatura mínima 14.1 °C 4:39 TU
Humitat relativa mitjana 50%
Precipitació acumulada 0.0 mm
Ratxa màxima del vent (10 m) 28.1 km/h - 120º 12:12 TU
Pressió atmosfèrica mitjana 1018.4 hPa
Irradiació solar global 29.2 MJ/m2

El tram horari està expressat en Temps Universal (TU). Cal sumar una hora en horari d'hivern i dues en horari d'estiu per passar a l'hora oficial.

Sabadell - Parc Agrari

Metadades estació meteorol´gica
Municipi Sabadell
Comarca Vallès Occidental
Altitud 258 m
Data alta 23.10.2008
Estat actual Operativa
Dades de període
Període
TU
TM
°C
TX
°C
TN
°C
HRM
%
PPT
mm
VVM (10 m)
km/h
DVM (10 m)
graus
VVX (10 m)
km/h
PM
hPa
RS
W/m2
00:00 - 00:30 15.6 16.1 15.4 80 0.0 1.8 298 4.7 1020.5 0
00:30 - 01:00 15.3 15.5 15.0 82 0.0 0.7 308 2.9 1020.5 0
01:00 - 01:30 15.2 15.6 14.9 83 0.0 2.9 288 5.0 1020.2 0
01:30 - 02:00 15.2 15.8 15.0 84 0.0 2.9 276 5.8 1020.0 0
02:00 - 02:30 15.1 15.8 14.7 83 0.0 1.4 278 5.4 1020.1 0
02:30 - 03:00 15.3 16.1 14.9 82 0.0 3.2 258 6.1 1020.0 0
03:00 - 03:30 15.0 15.3 14.7 83 0.0 4.0 246 5.8 1020.1 0
03:30 - 04:00 14.8 15.5 14.2 83 0.0 3.2 299 5.8 1020.1 0
04:00 - 04:30 14.6 14.8 14.3 84 0.0 1.1 1 4.7 1020.3 1
04:30 - 05:00 14.7 15.3 14.1 83 0.0 2.9 346 7.9 1020.4 25
05:00 - 05:30 15.9 16.8 15.1 81 0.0 1.1 309 4.7 1020.4 84
05:30 - 06:00 18.6 19.9 16.8 72 0.0 0.7 162 2.5 1020.1 164
06:00 - 06:30 21.6 22.8 20.0 58 0.0 0.4 153 3.2 1019.8 251
06:30 - 07:00 22.7 23.6 22.1 56 0.0 2.2 191 5.8 1019.8 352
07:00 - 07:30 23.9 24.7 23.5 52 0.0 2.9 199 6.5 1019.8 446
07:30 - 08:00 25.1 25.7 24.4 49 0.0 4.7 155 9.4 1019.5 531
08:00 - 08:30 26.1 27.1 25.5 45 0.0 5.4 134 11.2 1019.4 620
08:30 - 09:00 27.2 27.7 26.7 39 0.0 5.8 231 13.3 1019.1 698
09:00 - 09:30 28.0 28.6 27.1 35 0.0 5.4 149 12.2 1018.9 771
09:30 - 10:00 28.7 29.3 28.2 33 0.0 5.4 135 11.2 1018.6 834
10:00 - 10:30 29.3 29.9 28.8 32 0.0 7.9 161 20.5 1018.3 887
10:30 - 11:00 29.7 30.0 29.1 32 0.0 7.6 165 21.6 1018.1 923
11:00 - 11:30 29.6 30.1 29.3 35 0.0 13.7 129 25.9 1017.9 932
11:30 - 12:00 29.3 29.8 28.8 38 0.0 16.9 131 27.7 1017.7 942
12:00 - 12:30 29.7 30.4 29.1 35 0.0 14.4 140 28.1 1017.5 937
12:30 - 13:00 30.2 30.7 29.7 31 0.0 13.3 159 26.6 1017.4 925
13:00 - 13:30 29.7 29.9 29.3 31 0.0 13.7 164 25.6 1017.5 892
13:30 - 14:00 29.7 30.2 29.2 31 0.0 14.0 161 25.9 1017.3 854
14:00 - 14:30 29.8 30.3 29.4 29 0.0 13.3 185 27.7 1016.9 793
14:30 - 15:00 30.1 30.4 29.7 27 0.0 11.5 198 27.0 1016.6 735
15:00 - 15:30 30.2 30.6 29.9 27 0.0 11.2 193 25.6 1016.3 656
15:30 - 16:00 29.8 30.2 29.5 27 0.0 11.2 183 21.6 1016.1 554
16:00 - 16:30 29.4 29.7 29.1 28 0.0 12.2 213 25.2 1016.1 473
16:30 - 17:00 28.8 29.2 28.2 27 0.0 14.4 247 22.7 1016.1 375
17:00 - 17:30 27.5 28.1 27.0 32 0.0 15.8 250 26.3 1016.4 281
17:30 - 18:00 26.7 27.1 26.2 35 0.0 11.5 253 20.9 1016.6 188
18:00 - 18:30 25.7 26.1 25.2 34 0.0 13.7 253 24.1 1016.8 102
18:30 - 19:00 24.8 25.2 24.3 37 0.0 10.4 245 20.9 1017.0 33
19:00 - 19:30 23.9 24.3 23.4 39 0.0 8.6 240 18.7 1017.3 2
19:30 - 20:00 23.1 23.4 22.7 42 0.0 7.9 251 13.7 1017.4 0
20:00 - 20:30 22.4 22.7 22.2 44 0.0 7.2 276 14.0 1017.6 0
20:30 - 21:00 22.1 22.4 21.4 45 0.0 5.4 276 12.2 1017.7 0
21:00 - 21:30 20.7 21.4 19.8 50 0.0 1.4 287 5.0 1017.9 0
21:30 - 22:00 19.2 19.7 18.9 57 0.0 2.5 265 7.6 1017.9 0
22:00 - 22:30 19.7 20.1 19.2 55 0.0 7.2 277 13.3 1017.7 0
22:30 - 23:00 19.6 20.0 19.4 55 0.0 5.4 274 10.1 1017.7 0

Les dades en taronja només han passat un control de qualitat automàtic. Resta pendent la seva validació definitiva.